createdAt,value
2019-01-25T00:00:05.028Z,93
2019-01-25T00:05:27.745Z,89.300003
2019-01-25T00:10:50.795Z,87.199997
2019-01-25T00:16:14.335Z,85.199997
2019-01-25T00:21:37.159Z,79
2019-01-25T00:26:59.928Z,79.099998
2019-01-25T00:32:22.791Z,84
2019-01-25T00:37:45.541Z,77.099998
2019-01-25T00:43:08.476Z,84
2019-01-25T00:48:31.225Z,81.599998
2019-01-25T00:53:54.430Z,80.699997
2019-01-25T00:59:17.172Z,82.199997
2019-01-25T01:04:40.426Z,77.5
2019-01-25T01:10:03.220Z,79
2019-01-25T01:15:26.974Z,86.599998
2019-01-25T01:20:49.763Z,81.900002
2019-01-25T01:26:12.591Z,84.300003
2019-01-25T01:31:35.680Z,81
2019-01-25T01:36:59.823Z,85.5
2019-01-25T01:42:22.591Z,79.900002
2019-01-25T01:47:45.789Z,84.300003
2019-01-25T01:53:08.545Z,84.099998
2019-01-25T01:58:31.260Z,83.199997
2019-01-25T02:03:54.104Z,85.699997
2019-01-25T02:09:16.867Z,78
2019-01-25T02:14:39.644Z,83.599998
2019-01-25T02:20:02.432Z,81
2019-01-25T02:25:25.201Z,76
2019-01-25T02:30:47.961Z,79.300003
2019-01-25T02:36:10.770Z,80
2019-01-25T02:41:34.944Z,80.199997
2019-01-25T02:46:57.709Z,79.400002
2019-01-25T02:52:20.478Z,77.599998
2019-01-25T02:57:44.105Z,82.599998
2019-01-25T03:03:06.783Z,75.699997
2019-01-25T03:08:29.534Z,83.099998
2019-01-25T03:13:54.099Z,80
2019-01-25T03:19:16.815Z,76.900002
2019-01-25T03:24:39.637Z,87.800003
2019-01-25T03:30:03.153Z,79.099998
2019-01-25T03:35:25.969Z,82.800003
2019-01-25T03:40:54.878Z,78.800003
2019-01-25T03:46:12.751Z,78.099998
2019-01-25T03:51:35.616Z,82.300003
2019-01-25T03:56:59.354Z,79.699997
2019-01-25T04:02:22.063Z,83.599998
2019-01-25T04:07:45.441Z,80
2019-01-25T04:13:08.152Z,78.400002
2019-01-25T04:18:32.319Z,78.099998
2019-01-25T04:23:55.033Z,77.800003
2019-01-25T04:29:17.737Z,81.300003
2019-01-25T04:34:40.545Z,78.599998
2019-01-25T04:40:03.272Z,82.900002
2019-01-25T04:45:26.036Z,81.800003
2019-01-25T04:50:48.787Z,81.699997
2019-01-25T04:56:11.550Z,78
2019-01-25T05:01:34.335Z,75.099998
2019-01-25T05:06:57.168Z,80.699997
2019-01-25T05:12:20.151Z,87.699997
2019-01-25T05:17:45.360Z,82.300003
2019-01-25T05:23:09.448Z,87.699997
2019-01-25T05:28:32.506Z,76
2019-01-25T05:33:55.469Z,79.5
2019-01-25T05:39:19.576Z,85.699997
2019-01-25T05:44:42.271Z,79.099998
2019-01-25T05:50:04.895Z,75.5
2019-01-25T05:55:27.648Z,79.800003
2019-01-25T06:00:50.425Z,87.599998
2019-01-25T06:06:13.192Z,79.400002
2019-01-25T06:11:35.916Z,82.900002
2019-01-25T06:16:58.764Z,83.300003
2019-01-25T06:22:22.753Z,77
2019-01-25T06:27:46.045Z,82.300003
2019-01-25T06:33:09.984Z,84.400002
2019-01-25T06:38:33.125Z,82.400002
2019-01-25T06:43:55.941Z,91.800003
2019-01-25T06:49:19.747Z,84.699997
2019-01-25T06:54:42.472Z,82
2019-01-25T07:00:05.162Z,90.800003
2019-01-25T07:05:28.168Z,91.300003
2019-01-25T07:10:50.894Z,91.800003
2019-01-25T07:16:13.536Z,89.599998
2019-01-25T07:21:37.210Z,96.900002
2019-01-25T07:27:00.525Z,89.800003
2019-01-25T07:32:23.164Z,84.300003
2019-01-25T07:37:45.926Z,85.5
2019-01-25T07:43:08.582Z,92.800003
2019-01-25T07:48:31.234Z,86.199997
2019-01-25T07:53:54.041Z,88
2019-01-25T07:59:16.710Z,70.400002
2019-01-25T08:04:39.434Z,73.900002
2019-01-25T08:10:02.147Z,54.099998
2019-01-25T08:15:24.947Z,60.299999
2019-01-25T08:20:47.698Z,48.400002
2019-01-25T08:26:10.376Z,46.700001
2019-01-25T08:31:33.069Z,49.200001
2019-01-25T08:36:55.923Z,43.900002
2019-01-25T08:42:19.054Z,43.099998
2019-01-25T08:47:41.820Z,44.200001
2019-01-25T08:53:04.494Z,44.799999
2019-01-25T08:58:27.581Z,50.5
2019-01-25T09:03:51.359Z,47.799999
2019-01-25T09:09:14.143Z,50.599998
2019-01-25T09:14:36.968Z,51.5
2019-01-25T09:19:59.763Z,54.099998
2019-01-25T09:25:22.578Z,80.5
2019-01-25T09:30:45.696Z,74.199997
2019-01-25T09:36:08.638Z,71.900002
2019-01-25T09:41:31.300Z,68.599998
2019-01-25T09:46:54.117Z,67
2019-01-25T09:52:16.819Z,70
2019-01-25T09:57:39.521Z,71.099998
2019-01-25T10:03:02.206Z,76.400002
2019-01-25T10:08:24.857Z,80.099998
2019-01-25T10:13:47.577Z,72.800003
2019-01-25T10:19:10.197Z,63.400002
2019-01-25T10:24:32.970Z,65.699997
2019-01-25T10:29:56.978Z,68.400002
2019-01-25T10:35:18.188Z,52.5
2019-01-25T10:40:40.974Z,57
2019-01-25T10:46:03.751Z,44
2019-01-25T10:51:26.557Z,49.700001
2019-01-25T10:56:49.326Z,44.099998
2019-01-25T11:02:12.183Z,45.900002
2019-01-25T11:07:34.840Z,41.700001
2019-01-25T11:13:00.884Z,48.299999
2019-01-25T11:18:21.249Z,46.400002
2019-01-25T11:23:43.954Z,42.900002
2019-01-25T11:29:06.767Z,44.299999
2019-01-25T11:34:33.072Z,43.799999
2019-01-25T11:39:53.188Z,40.400002
2019-01-25T11:45:15.867Z,41.5
2019-01-25T11:50:38.870Z,42.700001
2019-01-25T11:56:01.589Z,41.900002
2019-01-25T12:01:24.433Z,39.900002
2019-01-25T12:06:47.084Z,42.099998
2019-01-25T12:12:09.841Z,46.400002
2019-01-25T12:17:32.688Z,45
2019-01-25T12:22:55.345Z,45.400002
2019-01-25T12:28:18.257Z,49.200001
2019-01-25T12:33:41.097Z,48
2019-01-25T12:39:06.028Z,48.099998
2019-01-25T12:44:28.806Z,51.200001
2019-01-25T12:49:51.603Z,48.900002
2019-01-25T12:55:14.227Z,50.900002
2019-01-25T13:00:36.969Z,50.299999
2019-01-25T13:05:59.745Z,55.900002
2019-01-25T13:11:22.666Z,57
2019-01-25T13:16:45.439Z,58.400002
2019-01-25T13:22:08.177Z,60
2019-01-25T13:27:30.939Z,60.400002
2019-01-25T13:32:53.688Z,64.400002
2019-01-25T13:38:16.334Z,62.299999
2019-01-25T13:43:39.353Z,68.599998
2019-01-25T13:49:01.737Z,67.900002
2019-01-25T13:54:28.658Z,78.699997
2019-01-25T13:59:48.368Z,73.699997
2019-01-25T14:05:12.335Z,82.699997
2019-01-25T14:10:35.440Z,97.599998
2019-01-25T14:15:59.470Z,99.699997
2019-01-25T14:21:22.270Z,103.59999
2019-01-25T14:26:44.994Z,129
2019-01-25T14:32:08.126Z,112.69999
2019-01-25T14:37:30.455Z,120.09999
2019-01-25T14:42:53.212Z,124
2019-01-25T14:48:17.032Z,129.6
2019-01-25T14:53:39.811Z,135.3
2019-01-25T14:59:02.521Z,144.39999
2019-01-25T15:04:25.316Z,151.1
2019-01-25T15:09:47.940Z,182.69999
2019-01-25T15:15:10.751Z,202.1
2019-01-25T15:20:33.556Z,197.69999
2019-01-25T15:25:56.393Z,199.8
2019-01-25T15:31:19.153Z,208.19999
2019-01-25T15:36:42.011Z,206.69999
2019-01-25T15:42:04.719Z,231.5
2019-01-25T15:47:27.485Z,232.69999
2019-01-25T15:52:50.190Z,203.19999
2019-01-25T15:58:12.966Z,220.69999
2019-01-25T16:03:35.666Z,227
2019-01-25T16:08:58.455Z,221.1
2019-01-25T16:14:21.107Z,241.89999
2019-01-25T16:19:44.683Z,226.39999
2019-01-25T16:25:07.343Z,236.1
2019-01-25T16:30:30.047Z,238.3
2019-01-25T16:35:52.764Z,245.69999
2019-01-25T16:41:15.439Z,253.6
2019-01-25T16:46:38.222Z,241.3
2019-01-25T16:52:00.919Z,225
2019-01-25T16:57:23.650Z,233
2019-01-25T17:02:46.328Z,235.6
2019-01-25T17:08:09.198Z,258.89999
2019-01-25T17:13:31.955Z,232.5
2019-01-25T17:18:54.621Z,241.39999
2019-01-25T17:24:18.307Z,229.39999
2019-01-25T17:29:41.231Z,222.69999
2019-01-25T17:35:04.659Z,215.6
2019-01-25T17:40:27.387Z,208.1
2019-01-25T17:45:50.126Z,201.5
2019-01-25T17:51:13.964Z,189.8
2019-01-25T17:56:36.635Z,181.89999
2019-01-25T18:01:59.488Z,164.39999
2019-01-25T18:07:22.200Z,169.8
2019-01-25T18:12:45.010Z,165.1
2019-01-25T18:18:07.742Z,141.5
2019-01-25T18:23:30.489Z,136.8
2019-01-25T18:28:53.351Z,127.59999
2019-01-25T18:34:16.295Z,133.1
2019-01-25T18:39:38.938Z,130.89999
2019-01-25T18:45:02.076Z,118.69999
2019-01-25T18:50:24.965Z,106.8
2019-01-25T18:55:47.609Z,114
2019-01-25T19:01:10.368Z,113.59999
2019-01-25T19:06:33.054Z,105.59999
2019-01-25T19:11:56.224Z,100.5
2019-01-25T19:17:18.823Z,88.699997
2019-01-25T19:22:41.595Z,98.699997
2019-01-25T19:28:04.628Z,104.8
2019-01-25T19:33:27.292Z,94
2019-01-25T19:38:50.096Z,100.4
2019-01-25T19:44:12.799Z,104.3
2019-01-25T19:49:35.455Z,96.699997
2019-01-25T19:54:58.528Z,96.199997
2019-01-25T20:00:21.457Z,102.09999
2019-01-25T20:05:44.467Z,93.099998
2019-01-25T20:11:07.319Z,92
2019-01-25T20:16:31.101Z,104.69999
2019-01-25T20:21:53.868Z,106.4
2019-01-25T20:27:16.544Z,103.19999
2019-01-25T20:32:39.209Z,118
2019-01-25T20:38:02.920Z,126.19999
2019-01-25T20:43:26.971Z,134.39999
2019-01-25T20:48:49.644Z,123.4
2019-01-25T20:54:12.496Z,119.9
2019-01-25T20:59:35.229Z,120
2019-01-25T21:04:58.636Z,126.8
2019-01-25T21:10:21.404Z,122.4
2019-01-25T21:15:44.077Z,128.3
2019-01-25T21:21:06.953Z,127.4
2019-01-25T21:26:29.659Z,140.1
2019-01-25T21:31:52.351Z,112
2019-01-25T21:37:15.120Z,121
2019-01-25T21:42:37.937Z,98.099998
2019-01-25T21:48:01.374Z,106.5
2019-01-25T21:53:24.131Z,102.69999
2019-01-25T21:58:46.858Z,97.400002
2019-01-25T22:04:09.546Z,82.900002
2019-01-25T22:09:32.588Z,87
2019-01-25T22:14:55.418Z,102.3
2019-01-25T22:20:19.148Z,94.099998
2019-01-25T22:25:41.921Z,91.900002
2019-01-25T22:31:04.740Z,70.5
2019-01-25T22:36:27.369Z,98.300003
2019-01-25T22:41:50.030Z,93
2019-01-25T22:47:19.988Z,78.699997
2019-01-25T22:52:36.400Z,75.900002
2019-01-25T22:57:59.137Z,72
2019-01-25T23:03:21.785Z,72.199997
2019-01-25T23:08:44.469Z,78.699997
2019-01-25T23:14:07.119Z,81.300003
2019-01-25T23:19:29.798Z,81.599998
2019-01-25T23:24:52.455Z,93.400002
2019-01-25T23:30:15.703Z,128.39999
2019-01-25T23:35:38.373Z,98.800003
2019-01-25T23:41:01.044Z,110.59999
2019-01-25T23:46:23.789Z,113.8
2019-01-25T23:51:46.440Z,92.599998
2019-01-25T23:57:09.063Z,102.3
